Pagrindinis puslapis
METAR-TAF:

METAR-TAF

Oro uostai :

Phitsanulok, Tailandas

platuma: 16-46-23N, ilguma: 100-16-56E, Aukštis: 47 m

Dabartinis oras

Ataskaita buvo paskelbta 7 valandos ir 53 minutes, ne 14:00 UTC
Vėjas 3 kt iš Pietų/Pietryčių
Temperatūra 25°C
Drėgmė 89%
Slėgis 1008 hPa
Matomumas 10 km arba daugiau
nėra debesų žemiau 1500 m ir nėra kamuolinių lietaus debesų

METAR: VTPP 171400Z 15003KT CAVOK 25/23 Q1008 NOSIG

Laikas: 04:53 (21:53 UTC)

Prognozė

Ataskaita buvo paskelbta 4 valandos ir 53 minutes, ne 17:00 UTC
Prognozė galioja nuo 17 metu 18 UTC su 18 metu 18 UTC
Vėjas 5 kt iš Pietų/Pietvakarių
Matomumas 10 km arba daugiau
Išsisklaidę debesys ne aukštis 2500 ft
Laikinai
nuo 18 metu 06 UTC su 18 metu 12 UTC
Vėjas 15 kt nuo kintamojo kryptimis su gūsio iki 25 kt
Matomumas: 5000 m
Mažai debesys ne aukštis 2000 ft, Liūtiniai kamuoliniai debesys.
Su prošvaistėmis ne aukštis 2500 ft
perkūnija, lietus

TAF: VTPP 171700Z 1718/1818 20005KT 9999 SCT025 TEMPO 1806/1812 VRB15G25KT 5000 TSRA FEW020CB BKN025

Orai ataskaitas ir orų prognozės (METAR, TAF).

turimą stotys yra geltonos ir raudonos taškus žemėlapyje.

Perkelti pele per norėdami pamatyti stoties vardą.

Tada spustelėkite, norėdami matyti oro stebėjimo ir prognozės.

Norėdami pakeisti žemėlapį: spustelėkite ant žalios mygtukų su juodo kryžiaus žemyn,; žalią mygtuką su brūkšneliu, jei norite nutolinti; arba žalių rodyklių gretimoms žemėlapius.


METAR-TAF: